sensor_id;sensor_type;location;lat;lon;timestamp;temperature;humidity
61374;DHT22;47242;48.158;-1.586;2024-02-23T05:32:54;6.70;81.70
61374;DHT22;47242;48.158;-1.586;2024-02-23T05:35:19;6.60;81.90
61374;DHT22;47242;48.158;-1.586;2024-02-23T05:37:45;6.60;82.00
61374;DHT22;47242;48.158;-1.586;2024-02-23T05:40:10;6.60;82.10
61374;DHT22;47242;48.158;-1.586;2024-02-23T05:42:36;6.50;82.30
61374;DHT22;47242;48.158;-1.586;2024-02-23T05:45:02;6.60;82.20
61374;DHT22;47242;48.158;-1.586;2024-02-23T05:47:30;6.60;82.20
61374;DHT22;47242;48.158;-1.586;2024-02-23T05:49:56;6.60;82.00
61374;DHT22;47242;48.158;-1.586;2024-02-23T05:52:21;6.60;82.00
61374;DHT22;47242;48.158;-1.586;2024-02-23T05:54:47;6.60;82.10
61374;DHT22;47242;48.158;-1.586;2024-02-23T05:57:12;6.60;82.10
61374;DHT22;47242;48.158;-1.586;2024-02-23T05:59:38;6.70;82.10
61374;DHT22;47242;48.158;-1.586;2024-02-23T06:02:04;6.70;82.00
61374;DHT22;47242;48.158;-1.586;2024-02-23T06:04:29;6.70;82.00
61374;DHT22;47242;48.158;-1.586;2024-02-23T06:06:55;6.70;82.00
61374;DHT22;47242;48.158;-1.586;2024-02-23T06:09:21;6.70;81.90
61374;DHT22;47242;48.158;-1.586;2024-02-23T06:11:47;6.70;81.90
61374;DHT22;47242;48.158;-1.586;2024-02-23T06:14:13;6.70;82.00
61374;DHT22;47242;48.158;-1.586;2024-02-23T06:16:38;6.70;82.00
61374;DHT22;47242;48.158;-1.586;2024-02-23T06:19:05;6.70;82.20
61374;DHT22;47242;48.158;-1.586;2024-02-23T06:21:31;6.70;82.20
61374;DHT22;47242;48.158;-1.586;2024-02-23T06:23:57;6.60;82.40
61374;DHT22;47242;48.158;-1.586;2024-02-23T06:26:23;6.70;82.50
61374;DHT22;47242;48.158;-1.586;2024-02-23T06:28:49;6.60;82.50
61374;DHT22;47242;48.158;-1.586;2024-02-23T06:31:14;6.60;82.60
61374;DHT22;47242;48.158;-1.586;2024-02-23T06:33:40;6.60;82.70
61374;DHT22;47242;48.158;-1.586;2024-02-23T06:36:06;6.60;82.70
61374;DHT22;47242;48.158;-1.586;2024-02-23T06:38:33;6.60;82.80
61374;DHT22;47242;48.158;-1.586;2024-02-23T06:40:59;6.60;82.70
61374;DHT22;47242;48.158;-1.586;2024-02-23T06:43:25;6.50;82.90
61374;DHT22;47242;48.158;-1.586;2024-02-23T06:45:50;6.50;82.70
61374;DHT22;47242;48.158;-1.586;2024-02-23T06:48:16;6.50;82.60
61374;DHT22;47242;48.158;-1.586;2024-02-23T06:50:42;6.50;82.50
61374;DHT22;47242;48.158;-1.586;2024-02-23T06:53:08;6.50;82.50
61374;DHT22;47242;48.158;-1.586;2024-02-23T06:55:36;6.50;82.30
61374;DHT22;47242;48.158;-1.586;2024-02-23T06:58:02;6.50;82.20
61374;DHT22;47242;48.158;-1.586;2024-02-23T07:00:30;6.50;82.10
61374;DHT22;47242;48.158;-1.586;2024-02-23T07:02:56;6.50;81.90
61374;DHT22;47242;48.158;-1.586;2024-02-23T07:05:24;6.50;81.80
61374;DHT22;47242;48.158;-1.586;2024-02-23T07:07:50;6.50;81.60
61374;DHT22;47242;48.158;-1.586;2024-02-23T07:10:15;6.40;81.70
61374;DHT22;47242;48.158;-1.586;2024-02-23T07:12:43;6.50;81.60
61374;DHT22;47242;48.158;-1.586;2024-02-23T07:15:10;6.50;81.50
61374;DHT22;47242;48.158;-1.586;2024-02-23T07:17:35;6.50;81.40
61374;DHT22;47242;48.158;-1.586;2024-02-23T07:20:01;6.60;81.20
61374;DHT22;47242;48.158;-1.586;2024-02-23T07:22:31;6.60;81.10
61374;DHT22;47242;48.158;-1.586;2024-02-23T07:24:57;6.60;81.10
61374;DHT22;47242;48.158;-1.586;2024-02-23T07:27:22;6.70;81.10
61374;DHT22;47242;48.158;-1.586;2024-02-23T07:29:48;6.70;80.90
61374;DHT22;47242;48.158;-1.586;2024-02-23T07:32:14;6.70;80.80
61374;DHT22;47242;48.158;-1.586;2024-02-23T07:34:39;6.70;80.70
61374;DHT22;47242;48.158;-1.586;2024-02-23T07:37:05;6.70;80.40
61374;DHT22;47242;48.158;-1.586;2024-02-23T07:39:31;6.70;80.70
61374;DHT22;47242;48.158;-1.586;2024-02-23T07:41:57;6.70;80.70
61374;DHT22;47242;48.158;-1.586;2024-02-23T07:44:22;6.70;80.60
61374;DHT22;47242;48.158;-1.586;2024-02-23T07:46:48;6.80;80.30
61374;DHT22;47242;48.158;-1.586;2024-02-23T07:49:14;6.90;80.20
61374;DHT22;47242;48.158;-1.586;2024-02-23T07:51:39;7.00;80.30
61374;DHT22;47242;48.158;-1.586;2024-02-23T07:54:05;7.20;79.90
61374;DHT22;47242;48.158;-1.586;2024-02-23T07:56:31;7.30;79.70
61374;DHT22;47242;48.158;-1.586;2024-02-23T07:58:56;7.40;79.50
61374;DHT22;47242;48.158;-1.586;2024-02-23T08:01:23;7.40;79.20
61374;DHT22;47242;48.158;-1.586;2024-02-23T08:03:48;7.30;79.10
61374;DHT22;47242;48.158;-1.586;2024-02-23T08:06:14;7.40;79.10
61374;DHT22;47242;48.158;-1.586;2024-02-23T08:08:40;7.40;79.30
61374;DHT22;47242;48.158;-1.586;2024-02-23T08:11:05;7.60;79.00
61374;DHT22;47242;48.158;-1.586;2024-02-23T08:13:31;7.70;78.50
61374;DHT22;47242;48.158;-1.586;2024-02-23T08:15:57;8.00;78.10
61374;DHT22;47242;48.158;-1.586;2024-02-23T08:18:23;8.20;77.60
61374;DHT22;47242;48.158;-1.586;2024-02-23T08:20:49;8.20;77.00
61374;DHT22;47242;48.158;-1.586;2024-02-23T08:23:15;8.10;77.60
61374;DHT22;47242;48.158;-1.586;2024-02-23T08:25:40;8.00;77.60
61374;DHT22;47242;48.158;-1.586;2024-02-23T08:28:06;7.90;78.00
61374;DHT22;47242;48.158;-1.586;2024-02-23T08:30:32;7.90;77.90
61374;DHT22;47242;48.158;-1.586;2024-02-23T08:32:58;8.10;78.00
61374;DHT22;47242;48.158;-1.586;2024-02-23T08:35:24;8.50;77.60
61374;DHT22;47242;48.158;-1.586;2024-02-23T08:37:49;9.00;76.20
61374;DHT22;47242;48.158;-1.586;2024-02-23T08:40:15;9.10;75.50
61374;DHT22;47242;48.158;-1.586;2024-02-23T08:42:41;9.10;75.30
61374;DHT22;47242;48.158;-1.586;2024-02-23T08:45:08;9.00;74.90
61374;DHT22;47242;48.158;-1.586;2024-02-23T08:47:35;9.00;75.00
61374;DHT22;47242;48.158;-1.586;2024-02-23T08:50:01;9.10;74.80
61374;DHT22;47242;48.158;-1.586;2024-02-23T08:52:27;9.10;74.80
61374;DHT22;47242;48.158;-1.586;2024-02-23T08:54:52;9.10;74.70
61374;DHT22;47242;48.158;-1.586;2024-02-23T08:57:18;9.00;74.40
61374;DHT22;47242;48.158;-1.586;2024-02-23T08:59:49;9.00;74.50
61374;DHT22;47242;48.158;-1.586;2024-02-23T09:02:15;9.00;74.50
61374;DHT22;47242;48.158;-1.586;2024-02-23T09:04:40;9.10;74.30
61374;DHT22;47242;48.158;-1.586;2024-02-23T09:07:06;9.10;74.00
61374;DHT22;47242;48.158;-1.586;2024-02-23T09:09:32;9.20;74.30
61374;DHT22;47242;48.158;-1.586;2024-02-23T09:11:57;9.40;74.00
61374;DHT22;47242;48.158;-1.586;2024-02-23T09:14:23;9.60;73.50
61374;DHT22;47242;48.158;-1.586;2024-02-23T09:16:51;9.70;73.00
61374;DHT22;47242;48.158;-1.586;2024-02-23T09:19:17;9.80;72.80
61374;DHT22;47242;48.158;-1.586;2024-02-23T09:21:43;9.80;72.20
61374;DHT22;47242;48.158;-1.586;2024-02-23T09:24:09;9.80;72.20
61374;DHT22;47242;48.158;-1.586;2024-02-23T09:26:35;9.80;72.20
61374;DHT22;47242;48.158;-1.586;2024-02-23T09:29:00;9.80;71.80
61374;DHT22;47242;48.158;-1.586;2024-02-23T09:31:26;9.90;71.90
61374;DHT22;47242;48.158;-1.586;2024-02-23T09:33:54;9.80;72.00
61374;DHT22;47242;48.158;-1.586;2024-02-23T09:36:20;9.70;72.40
61374;DHT22;47242;48.158;-1.586;2024-02-23T09:38:46;9.50;72.60
61374;DHT22;47242;48.158;-1.586;2024-02-23T09:41:21;9.40;72.90
61374;DHT22;47242;48.158;-1.586;2024-02-23T09:43:47;9.20;73.20
61374;DHT22;47242;48.158;-1.586;2024-02-23T09:46:15;9.20;73.70
61374;DHT22;47242;48.158;-1.586;2024-02-23T09:48:43;9.30;73.60
61374;DHT22;47242;48.158;-1.586;2024-02-23T09:51:10;9.40;73.90
61374;DHT22;47242;48.158;-1.586;2024-02-23T09:53:37;9.40;73.40
61374;DHT22;47242;48.158;-1.586;2024-02-23T09:56:04;9.40;73.50
61374;DHT22;47242;48.158;-1.586;2024-02-23T09:58:34;9.40;73.60
61374;DHT22;47242;48.158;-1.586;2024-02-23T10:01:02;9.30;73.90
61374;DHT22;47242;48.158;-1.586;2024-02-23T10:03:28;9.30;74.10
61374;DHT22;47242;48.158;-1.586;2024-02-23T10:05:56;9.30;73.60
61374;DHT22;47242;48.158;-1.586;2024-02-23T10:08:22;9.50;74.10
61374;DHT22;47242;48.158;-1.586;2024-02-23T10:10:47;9.70;73.40
61374;DHT22;47242;48.158;-1.586;2024-02-23T10:13:24;9.90;73.00
61374;DHT22;47242;48.158;-1.586;2024-02-23T10:15:51;10.00;72.50
61374;DHT22;47242;48.158;-1.586;2024-02-23T10:18:17;9.80;71.90
61374;DHT22;47242;48.158;-1.586;2024-02-23T10:20:42;9.80;72.30
61374;DHT22;47242;48.158;-1.586;2024-02-23T10:23:09;9.70;72.20
61374;DHT22;47242;48.158;-1.586;2024-02-23T10:25:35;9.60;72.40
61374;DHT22;47242;48.158;-1.586;2024-02-23T10:28:04;9.50;72.70
61374;DHT22;47242;48.158;-1.586;2024-02-23T10:30:30;9.50;72.80
61374;DHT22;47242;48.158;-1.586;2024-02-23T10:32:57;9.40;72.70
61374;DHT22;47242;48.158;-1.586;2024-02-23T10:35:24;9.30;72.90
61374;DHT22;47242;48.158;-1.586;2024-02-23T10:37:51;9.30;73.10
61374;DHT22;47242;48.158;-1.586;2024-02-23T10:40:19;9.40;72.90
61374;DHT22;47242;48.158;-1.586;2024-02-23T10:42:46;9.50;72.60
61374;DHT22;47242;48.158;-1.586;2024-02-23T10:45:21;9.70;72.40
61374;DHT22;47242;48.158;-1.586;2024-02-23T10:47:50;9.80;71.80
61374;DHT22;47242;48.158;-1.586;2024-02-23T10:50:17;9.80;70.90
61374;DHT22;47242;48.158;-1.586;2024-02-23T10:52:45;9.80;71.30
61374;DHT22;47242;48.158;-1.586;2024-02-23T10:55:13;9.90;70.80
61374;DHT22;47242;48.158;-1.586;2024-02-23T10:57:39;9.90;70.80
61374;DHT22;47242;48.158;-1.586;2024-02-23T11:00:07;10.00;70.20
61374;DHT22;47242;48.158;-1.586;2024-02-23T11:02:48;10.20;70.30
61374;DHT22;47242;48.158;-1.586;2024-02-23T11:05:16;10.20;69.90
61374;DHT22;47242;48.158;-1.586;2024-02-23T11:07:41;10.30;70.00
61374;DHT22;47242;48.158;-1.586;2024-02-23T11:10:08;10.40;69.20
61374;DHT22;47242;48.158;-1.586;2024-02-23T11:12:35;10.50;69.20
61374;DHT22;47242;48.158;-1.586;2024-02-23T11:15:01;10.60;69.00
61374;DHT22;47242;48.158;-1.586;2024-02-23T11:17:30;10.50;68.40
61374;DHT22;47242;48.158;-1.586;2024-02-23T11:19:57;10.60;68.70
61374;DHT22;47242;48.158;-1.586;2024-02-23T11:22:26;10.60;68.80
61374;DHT22;47242;48.158;-1.586;2024-02-23T11:24:52;10.60;68.60
61374;DHT22;47242;48.158;-1.586;2024-02-23T11:27:17;10.50;67.80
61374;DHT22;47242;48.158;-1.586;2024-02-23T11:29:45;10.60;68.00
61374;DHT22;47242;48.158;-1.586;2024-02-23T11:32:16;10.70;68.20
61374;DHT22;47242;48.158;-1.586;2024-02-23T11:34:54;10.80;68.00
61374;DHT22;47242;48.158;-1.586;2024-02-23T11:37:22;11.10;67.40
61374;DHT22;47242;48.158;-1.586;2024-02-23T11:39:48;11.50;67.50
61374;DHT22;47242;48.158;-1.586;2024-02-23T11:42:14;11.60;65.90
61374;DHT22;47242;48.158;-1.586;2024-02-23T11:44:40;11.60;66.40
61374;DHT22;47242;48.158;-1.586;2024-02-23T11:47:07;11.40;66.20
61374;DHT22;47242;48.158;-1.586;2024-02-23T11:49:33;11.30;65.60
61374;DHT22;47242;48.158;-1.586;2024-02-23T11:51:59;11.10;65.80
61374;DHT22;47242;48.158;-1.586;2024-02-23T11:54:25;10.90;66.30
61374;DHT22;47242;48.158;-1.586;2024-02-23T11:56:51;10.80;66.40
61374;DHT22;47242;48.158;-1.586;2024-02-23T11:59:21;10.80;66.90
61374;DHT22;47242;48.158;-1.586;2024-02-23T12:01:48;10.80;67.00
61374;DHT22;47242;48.158;-1.586;2024-02-23T12:04:14;10.80;66.80
61374;DHT22;47242;48.158;-1.586;2024-02-23T12:06:42;10.80;66.90
61374;DHT22;47242;48.158;-1.586;2024-02-23T12:09:08;10.70;67.30
61374;DHT22;47242;48.158;-1.586;2024-02-23T12:11:34;10.80;67.40
61374;DHT22;47242;48.158;-1.586;2024-02-23T12:14:00;10.80;67.60
61374;DHT22;47242;48.158;-1.586;2024-02-23T12:16:28;10.90;67.50
61374;DHT22;47242;48.158;-1.586;2024-02-23T12:18:54;11.00;67.80
61374;DHT22;47242;48.158;-1.586;2024-02-23T12:21:24;11.00;66.60
61374;DHT22;47242;48.158;-1.586;2024-02-23T12:23:50;10.80;66.30
61374;DHT22;47242;48.158;-1.586;2024-02-23T12:26:17;10.70;66.50
61374;DHT22;47242;48.158;-1.586;2024-02-23T12:28:43;10.70;66.80
61374;DHT22;47242;48.158;-1.586;2024-02-23T12:31:09;10.70;66.90
61374;DHT22;47242;48.158;-1.586;2024-02-23T12:33:36;10.70;66.10
61374;DHT22;47242;48.158;-1.586;2024-02-23T12:36:10;10.80;65.80
61374;DHT22;47242;48.158;-1.586;2024-02-23T12:38:35;10.80;65.40
61374;DHT22;47242;48.158;-1.586;2024-02-23T12:41:02;10.80;65.00
61374;DHT22;47242;48.158;-1.586;2024-02-23T12:43:28;10.80;64.90
61374;DHT22;47242;48.158;-1.586;2024-02-23T12:45:55;10.80;64.20
61374;DHT22;47242;48.158;-1.586;2024-02-23T12:48:22;11.00;65.00
61374;DHT22;47242;48.158;-1.586;2024-02-23T12:50:48;11.20;64.40
61374;DHT22;47242;48.158;-1.586;2024-02-23T12:56:06;11.70;63.80
61374;DHT22;47242;48.158;-1.586;2024-02-23T12:58:39;11.60;64.10
61374;DHT22;47242;48.158;-1.586;2024-02-23T13:01:05;11.60;63.70
61374;DHT22;47242;48.158;-1.586;2024-02-23T13:03:33;11.40;64.20
61374;DHT22;47242;48.158;-1.586;2024-02-23T13:05:59;11.40;64.70
61374;DHT22;47242;48.158;-1.586;2024-02-23T13:08:26;11.50;65.10
61374;DHT22;47242;48.158;-1.586;2024-02-23T13:10:52;11.70;63.90
61374;DHT22;47242;48.158;-1.586;2024-02-23T13:13:19;11.70;63.10
61374;DHT22;47242;48.158;-1.586;2024-02-23T13:15:46;11.50;62.20
61374;DHT22;47242;48.158;-1.586;2024-02-23T13:18:12;11.50;63.30
61374;DHT22;47242;48.158;-1.586;2024-02-23T13:20:38;11.60;63.80
61374;DHT22;47242;48.158;-1.586;2024-02-23T13:23:05;11.50;62.60
61374;DHT22;47242;48.158;-1.586;2024-02-23T13:25:36;11.50;62.50
61374;DHT22;47242;48.158;-1.586;2024-02-23T13:28:02;11.40;62.90
61374;DHT22;47242;48.158;-1.586;2024-02-23T13:30:28;11.30;62.70
61374;DHT22;47242;48.158;-1.586;2024-02-23T13:32:54;11.20;63.60
61374;DHT22;47242;48.158;-1.586;2024-02-23T13:35:20;11.20;64.10
61374;DHT22;47242;48.158;-1.586;2024-02-23T13:37:45;11.10;63.30
61374;DHT22;47242;48.158;-1.586;2024-02-23T13:40:11;11.00;63.60
61374;DHT22;47242;48.158;-1.586;2024-02-23T13:42:37;10.90;64.10
61374;DHT22;47242;48.158;-1.586;2024-02-23T13:45:08;10.80;64.70
61374;DHT22;47242;48.158;-1.586;2024-02-23T13:47:35;10.70;64.80
61374;DHT22;47242;48.158;-1.586;2024-02-23T13:50:01;10.60;64.80
61374;DHT22;47242;48.158;-1.586;2024-02-23T13:52:27;10.60;65.50
61374;DHT22;47242;48.158;-1.586;2024-02-23T13:54:53;10.50;65.30
61374;DHT22;47242;48.158;-1.586;2024-02-23T13:57:18;10.30;65.30
61374;DHT22;47242;48.158;-1.586;2024-02-23T13:59:44;10.20;65.80
61374;DHT22;47242;48.158;-1.586;2024-02-23T14:02:10;10.00;66.40
61374;DHT22;47242;48.158;-1.586;2024-02-23T14:04:35;9.90;66.90
61374;DHT22;47242;48.158;-1.586;2024-02-23T14:07:01;9.80;67.90
61374;DHT22;47242;48.158;-1.586;2024-02-23T14:09:27;9.80;67.60
61374;DHT22;47242;48.158;-1.586;2024-02-23T14:11:52;9.70;67.90
61374;DHT22;47242;48.158;-1.586;2024-02-23T14:14:18;9.70;68.00
61374;DHT22;47242;48.158;-1.586;2024-02-23T14:16:45;9.60;68.50
61374;DHT22;47242;48.158;-1.586;2024-02-23T14:19:11;9.60;68.80
61374;DHT22;47242;48.158;-1.586;2024-02-23T14:21:36;9.50;69.40
61374;DHT22;47242;48.158;-1.586;2024-02-23T14:24:03;9.50;70.20
61374;DHT22;47242;48.158;-1.586;2024-02-23T14:26:29;9.50;70.10
61374;DHT22;47242;48.158;-1.586;2024-02-23T14:28:55;9.40;70.50
61374;DHT22;47242;48.158;-1.586;2024-02-23T14:31:20;9.40;71.00
61374;DHT22;47242;48.158;-1.586;2024-02-23T14:33:46;9.50;71.20
61374;DHT22;47242;48.158;-1.586;2024-02-23T14:36:16;9.40;71.20
61374;DHT22;47242;48.158;-1.586;2024-02-23T14:38:42;9.30;70.80
61374;DHT22;47242;48.158;-1.586;2024-02-23T14:41:08;9.40;70.30
61374;DHT22;47242;48.158;-1.586;2024-02-23T14:43:35;9.30;70.40
61374;DHT22;47242;48.158;-1.586;2024-02-23T14:46:01;9.20;68.90
61374;DHT22;47242;48.158;-1.586;2024-02-23T14:48:26;9.20;68.80
61374;DHT22;47242;48.158;-1.586;2024-02-23T14:50:52;9.20;68.50
61374;DHT22;47242;48.158;-1.586;2024-02-23T14:53:18;9.30;67.90
61374;DHT22;47242;48.158;-1.586;2024-02-23T14:55:43;9.50;67.40
61374;DHT22;47242;48.158;-1.586;2024-02-23T14:58:09;10.10;67.40
61374;DHT22;47242;48.158;-1.586;2024-02-23T15:00:34;10.40;65.30
61374;DHT22;47242;48.158;-1.586;2024-02-23T15:03:00;10.30;63.70
61374;DHT22;47242;48.158;-1.586;2024-02-23T15:05:26;10.10;62.90
61374;DHT22;47242;48.158;-1.586;2024-02-23T15:07:51;10.00;63.60
61374;DHT22;47242;48.158;-1.586;2024-02-23T15:10:17;9.90;63.30
61374;DHT22;47242;48.158;-1.586;2024-02-23T15:12:43;9.80;64.20
61374;DHT22;47242;48.158;-1.586;2024-02-23T15:15:10;9.80;64.80
61374;DHT22;47242;48.158;-1.586;2024-02-23T15:17:35;9.80;64.50
61374;DHT22;47242;48.158;-1.586;2024-02-23T15:20:01;9.70;64.60
61374;DHT22;47242;48.158;-1.586;2024-02-23T15:22:27;9.70;65.20
61374;DHT22;47242;48.158;-1.586;2024-02-23T15:24:54;9.60;65.20
61374;DHT22;47242;48.158;-1.586;2024-02-23T15:27:19;9.50;65.30
61374;DHT22;47242;48.158;-1.586;2024-02-23T15:29:46;9.20;66.00
61374;DHT22;47242;48.158;-1.586;2024-02-23T15:32:13;8.90;67.20
61374;DHT22;47242;48.158;-1.586;2024-02-23T15:34:40;8.80;68.40
61374;DHT22;47242;48.158;-1.586;2024-02-23T15:37:06;8.80;68.60
61374;DHT22;47242;48.158;-1.586;2024-02-23T15:39:32;8.70;69.80
61374;DHT22;47242;48.158;-1.586;2024-02-23T15:41:58;8.70;70.20
61374;DHT22;47242;48.158;-1.586;2024-02-23T15:44:24;8.70;71.10
61374;DHT22;47242;48.158;-1.586;2024-02-23T15:46:49;8.60;72.80
61374;DHT22;47242;48.158;-1.586;2024-02-23T15:49:15;8.50;73.10
61374;DHT22;47242;48.158;-1.586;2024-02-23T15:51:44;8.50;73.30
61374;DHT22;47242;48.158;-1.586;2024-02-23T15:54:10;8.40;73.80
61374;DHT22;47242;48.158;-1.586;2024-02-23T15:56:36;8.30;73.60
61374;DHT22;47242;48.158;-1.586;2024-02-23T15:59:03;8.40;73.80
61374;DHT22;47242;48.158;-1.586;2024-02-23T16:01:33;8.60;73.90
61374;DHT22;47242;48.158;-1.586;2024-02-23T16:03:59;8.90;74.10
61374;DHT22;47242;48.158;-1.586;2024-02-23T16:06:24;9.10;73.80
61374;DHT22;47242;48.158;-1.586;2024-02-23T16:08:51;9.10;73.00
61374;DHT22;47242;48.158;-1.586;2024-02-23T16:11:17;9.00;73.40
61374;DHT22;47242;48.158;-1.586;2024-02-23T16:13:43;8.80;73.40
61374;DHT22;47242;48.158;-1.586;2024-02-23T16:16:12;8.70;73.50
61374;DHT22;47242;48.158;-1.586;2024-02-23T16:18:39;8.60;73.70
61374;DHT22;47242;48.158;-1.586;2024-02-23T16:21:05;8.60;74.10
61374;DHT22;47242;48.158;-1.586;2024-02-23T16:23:31;8.50;74.40
61374;DHT22;47242;48.158;-1.586;2024-02-23T16:25:57;8.50;74.20
61374;DHT22;47242;48.158;-1.586;2024-02-23T16:28:22;8.60;74.40
61374;DHT22;47242;48.158;-1.586;2024-02-23T16:30:48;8.70;74.40
61374;DHT22;47242;48.158;-1.586;2024-02-23T16:33:15;8.70;74.70
61374;DHT22;47242;48.158;-1.586;2024-02-23T16:35:40;8.70;74.40
61374;DHT22;47242;48.158;-1.586;2024-02-23T16:38:06;8.70;74.30
61374;DHT22;47242;48.158;-1.586;2024-02-23T16:40:32;8.60;74.20
61374;DHT22;47242;48.158;-1.586;2024-02-23T16:42:58;8.50;74.40
61374;DHT22;47242;48.158;-1.586;2024-02-23T16:45:26;8.40;74.50
61374;DHT22;47242;48.158;-1.586;2024-02-23T16:47:52;8.40;74.80
61374;DHT22;47242;48.158;-1.586;2024-02-23T16:50:18;8.30;74.90
61374;DHT22;47242;48.158;-1.586;2024-02-23T16:52:45;8.20;75.00
61374;DHT22;47242;48.158;-1.586;2024-02-23T16:55:11;8.00;75.40
61374;DHT22;47242;48.158;-1.586;2024-02-23T16:57:36;8.00;75.60
61374;DHT22;47242;48.158;-1.586;2024-02-23T17:00:02;7.90;75.50
61374;DHT22;47242;48.158;-1.586;2024-02-23T17:02:28;7.80;75.60
61374;DHT22;47242;48.158;-1.586;2024-02-23T17:04:54;7.70;75.90
61374;DHT22;47242;48.158;-1.586;2024-02-23T17:07:19;7.70;76.30
61374;DHT22;47242;48.158;-1.586;2024-02-23T17:09:45;7.70;76.40
61374;DHT22;47242;48.158;-1.586;2024-02-23T17:12:15;7.60;76.60
61374;DHT22;47242;48.158;-1.586;2024-02-23T17:14:44;7.60;76.60
61374;DHT22;47242;48.158;-1.586;2024-02-23T17:17:10;7.60;76.90
61374;DHT22;47242;48.158;-1.586;2024-02-23T17:19:36;7.50;76.60
61374;DHT22;47242;48.158;-1.586;2024-02-23T17:22:01;7.40;76.70
61374;DHT22;47242;48.158;-1.586;2024-02-23T17:24:27;7.30;77.00
61374;DHT22;47242;48.158;-1.586;2024-02-23T17:26:53;7.30;77.30
61374;DHT22;47242;48.158;-1.586;2024-02-23T17:29:18;7.20;77.30
61374;DHT22;47242;48.158;-1.586;2024-02-23T17:31:44;7.20;77.40
61374;DHT22;47242;48.158;-1.586;2024-02-23T17:34:10;7.10;77.80
61374;DHT22;47242;48.158;-1.586;2024-02-23T17:36:37;7.10;77.90
61374;DHT22;47242;48.158;-1.586;2024-02-23T17:39:08;7.00;78.40
61374;DHT22;47242;48.158;-1.586;2024-02-23T17:41:34;7.10;78.90
61374;DHT22;47242;48.158;-1.586;2024-02-23T17:43:59;7.10;78.30
61374;DHT22;47242;48.158;-1.586;2024-02-23T17:46:25;7.20;78.20
61374;DHT22;47242;48.158;-1.586;2024-02-23T17:48:51;7.20;78.10
61374;DHT22;47242;48.158;-1.586;2024-02-23T17:51:17;7.20;78.20
61374;DHT22;47242;48.158;-1.586;2024-02-23T17:53:43;7.20;78.10
61374;DHT22;47242;48.158;-1.586;2024-02-23T17:56:08;7.20;78.10
61374;DHT22;47242;48.158;-1.586;2024-02-23T17:58:35;7.00;78.10
61374;DHT22;47242;48.158;-1.586;2024-02-23T18:01:02;7.00;78.30
61374;DHT22;47242;48.158;-1.586;2024-02-23T18:03:28;7.00;78.20
61374;DHT22;47242;48.158;-1.586;2024-02-23T18:05:53;7.00;78.30
61374;DHT22;47242;48.158;-1.586;2024-02-23T18:08:19;6.80;78.20
61374;DHT22;47242;48.158;-1.586;2024-02-23T18:10:44;6.80;78.40
61374;DHT22;47242;48.158;-1.586;2024-02-23T18:13:10;6.70;78.70
61374;DHT22;47242;48.158;-1.586;2024-02-23T18:15:39;6.70;79.00
61374;DHT22;47242;48.158;-1.586;2024-02-23T18:18:04;6.60;79.00
61374;DHT22;47242;48.158;-1.586;2024-02-23T18:20:30;6.60;79.10
61374;DHT22;47242;48.158;-1.586;2024-02-23T18:22:55;6.40;79.30
61374;DHT22;47242;48.158;-1.586;2024-02-23T18:25:22;6.30;79.60
61374;DHT22;47242;48.158;-1.586;2024-02-23T18:27:48;6.40;79.70
61374;DHT22;47242;48.158;-1.586;2024-02-23T18:30:14;6.30;79.80
61374;DHT22;47242;48.158;-1.586;2024-02-23T18:32:40;6.30;79.60
61374;DHT22;47242;48.158;-1.586;2024-02-23T18:35:06;6.30;79.50
61374;DHT22;47242;48.158;-1.586;2024-02-23T18:37:33;6.40;79.80
61374;DHT22;47242;48.158;-1.586;2024-02-23T18:39:59;6.40;79.60
61374;DHT22;47242;48.158;-1.586;2024-02-23T18:42:24;6.40;79.60
61374;DHT22;47242;48.158;-1.586;2024-02-23T18:44:51;6.40;79.70
61374;DHT22;47242;48.158;-1.586;2024-02-23T18:47:17;6.40;79.80
61374;DHT22;47242;48.158;-1.586;2024-02-23T18:49:42;6.40;79.80
61374;DHT22;47242;48.158;-1.586;2024-02-23T18:52:08;6.30;79.80
61374;DHT22;47242;48.158;-1.586;2024-02-23T18:54:35;6.30;79.80
61374;DHT22;47242;48.158;-1.586;2024-02-23T18:57:00;6.30;80.00
61374;DHT22;47242;48.158;-1.586;2024-02-23T18:59:27;6.20;80.00
61374;DHT22;47242;48.158;-1.586;2024-02-23T19:01:53;6.20;80.00
61374;DHT22;47242;48.158;-1.586;2024-02-23T19:04:19;6.20;80.20
61374;DHT22;47242;48.158;-1.586;2024-02-23T19:06:45;6.10;80.20
61374;DHT22;47242;48.158;-1.586;2024-02-23T19:09:10;6.10;80.30
61374;DHT22;47242;48.158;-1.586;2024-02-23T19:11:36;6.00;80.40
61374;DHT22;47242;48.158;-1.586;2024-02-23T19:14:02;6.00;80.60
61374;DHT22;47242;48.158;-1.586;2024-02-23T19:16:28;6.00;80.60
61374;DHT22;47242;48.158;-1.586;2024-02-23T19:18:53;5.90;80.90
61374;DHT22;47242;48.158;-1.586;2024-02-23T19:21:20;6.00;80.90
61374;DHT22;47242;48.158;-1.586;2024-02-23T19:23:47;5.90;80.90
61374;DHT22;47242;48.158;-1.586;2024-02-23T19:26:13;5.90;81.00
61374;DHT22;47242;48.158;-1.586;2024-02-23T19:28:38;5.90;81.10
61374;DHT22;47242;48.158;-1.586;2024-02-23T19:31:04;5.80;80.70
61374;DHT22;47242;48.158;-1.586;2024-02-23T19:33:30;5.80;81.20
61374;DHT22;47242;48.158;-1.586;2024-02-23T19:35:55;5.80;81.20
61374;DHT22;47242;48.158;-1.586;2024-02-23T19:38:21;5.90;81.00
61374;DHT22;47242;48.158;-1.586;2024-02-23T19:40:47;5.80;81.10
61374;DHT22;47242;48.158;-1.586;2024-02-23T19:43:12;5.80;81.10
61374;DHT22;47242;48.158;-1.586;2024-02-23T19:45:38;5.80;81.10
61374;DHT22;47242;48.158;-1.586;2024-02-23T19:48:04;5.80;81.20
61374;DHT22;47242;48.158;-1.586;2024-02-23T19:50:29;5.70;81.20
61374;DHT22;47242;48.158;-1.586;2024-02-23T19:52:55;5.70;81.20
61374;DHT22;47242;48.158;-1.586;2024-02-23T19:55:21;5.70;81.20
61374;DHT22;47242;48.158;-1.586;2024-02-23T19:57:46;5.70;81.20
61374;DHT22;47242;48.158;-1.586;2024-02-23T20:00:12;5.70;81.20
61374;DHT22;47242;48.158;-1.586;2024-02-23T20:02:38;5.60;81.30
61374;DHT22;47242;48.158;-1.586;2024-02-23T20:05:04;5.50;81.40
61374;DHT22;47242;48.158;-1.586;2024-02-23T20:07:30;5.60;81.50
61374;DHT22;47242;48.158;-1.586;2024-02-23T20:09:56;5.60;81.40
61374;DHT22;47242;48.158;-1.586;2024-02-23T20:12:21;5.60;81.50
61374;DHT22;47242;48.158;-1.586;2024-02-23T20:14:47;5.50;81.50
61374;DHT22;47242;48.158;-1.586;2024-02-23T20:17:15;5.50;81.40
61374;DHT22;47242;48.158;-1.586;2024-02-23T20:19:40;5.50;81.70
61374;DHT22;47242;48.158;-1.586;2024-02-23T20:22:06;5.50;81.50
61374;DHT22;47242;48.158;-1.586;2024-02-23T20:24:32;5.60;81.10
61374;DHT22;47242;48.158;-1.586;2024-02-23T20:26:58;5.60;81.30
61374;DHT22;47242;48.158;-1.586;2024-02-23T20:29:25;5.60;81.20
61374;DHT22;47242;48.158;-1.586;2024-02-23T20:31:51;5.50;81.10
61374;DHT22;47242;48.158;-1.586;2024-02-23T20:34:17;5.50;81.30
61374;DHT22;47242;48.158;-1.586;2024-02-23T20:36:43;5.50;81.10
61374;DHT22;47242;48.158;-1.586;2024-02-23T20:39:09;5.40;81.10
61374;DHT22;47242;48.158;-1.586;2024-02-23T20:41:36;5.40;81.20
61374;DHT22;47242;48.158;-1.586;2024-02-23T20:44:02;5.40;81.20
61374;DHT22;47242;48.158;-1.586;2024-02-23T20:46:27;5.40;81.20
61374;DHT22;47242;48.158;-1.586;2024-02-23T20:48:53;5.30;81.30
61374;DHT22;47242;48.158;-1.586;2024-02-23T20:51:20;5.30;81.20
61374;DHT22;47242;48.158;-1.586;2024-02-23T20:53:46;5.30;81.30
61374;DHT22;47242;48.158;-1.586;2024-02-23T20:56:13;5.20;81.50